sensor_id;sensor_type;location;lat;lon;timestamp;pressure;altitude;pressure_sealevel;temperature
21336;BMP180;10826;52.536;13.432;2022-11-20T00:01:30;100587.00;;;8.40
21336;BMP180;10826;52.536;13.432;2022-11-20T00:03:58;100595.00;;;9.00
21336;BMP180;10826;52.536;13.432;2022-11-20T00:06:26;100578.00;;;8.90
21336;BMP180;10826;52.536;13.432;2022-11-20T00:08:58;100570.00;;;9.00
21336;BMP180;10826;52.536;13.432;2022-11-20T00:11:27;100580.00;;;9.00
21336;BMP180;10826;52.536;13.432;2022-11-20T00:13:56;100578.00;;;9.00
21336;BMP180;10826;52.536;13.432;2022-11-20T00:16:25;100571.00;;;9.00
21336;BMP180;10826;52.536;13.432;2022-11-20T00:18:53;100575.00;;;9.00
21336;BMP180;10826;52.536;13.432;2022-11-20T00:21:25;100587.00;;;9.00
21336;BMP180;10826;52.536;13.432;2022-11-20T00:23:54;100575.00;;;9.00
21336;BMP180;10826;52.536;13.432;2022-11-20T00:26:22;100578.00;;;9.00
21336;BMP180;10826;52.536;13.432;2022-11-20T00:28:55;100582.00;;;9.00
21336;BMP180;10826;52.536;13.432;2022-11-20T00:31:22;100583.00;;;9.00
21336;BMP180;10826;52.536;13.432;2022-11-20T00:33:48;100565.00;;;9.00
21336;BMP180;10826;52.536;13.432;2022-11-20T00:36:20;100575.00;;;9.00
21336;BMP180;10826;52.536;13.432;2022-11-20T00:38:50;100581.00;;;9.00
21336;BMP180;10826;52.536;13.432;2022-11-20T00:41:16;100578.00;;;9.00
21336;BMP180;10826;52.536;13.432;2022-11-20T00:43:42;100590.00;;;9.00
21336;BMP180;10826;52.536;13.432;2022-11-20T00:46:16;100592.00;;;9.00
21336;BMP180;10826;52.536;13.432;2022-11-20T00:48:43;100572.00;;;9.00
21336;BMP180;10826;52.536;13.432;2022-11-20T00:51:13;100580.00;;;9.00
21336;BMP180;10826;52.536;13.432;2022-11-20T00:53:39;100578.00;;;9.00
21336;BMP180;10826;52.536;13.432;2022-11-20T00:56:11;100579.00;;;9.00
21336;BMP180;10826;52.536;13.432;2022-11-20T00:58:40;100577.00;;;9.00
21336;BMP180;10826;52.536;13.432;2022-11-20T01:01:12;100583.00;;;9.00
21336;BMP180;10826;52.536;13.432;2022-11-20T01:03:44;100578.00;;;9.00
21336;BMP180;10826;52.536;13.432;2022-11-20T01:06:30;100579.00;;;9.00
21336;BMP180;10826;52.536;13.432;2022-11-20T01:08:59;100586.00;;;9.00
21336;BMP180;10826;52.536;13.432;2022-11-20T01:11:29;100568.00;;;9.00
21336;BMP180;10826;52.536;13.432;2022-11-20T01:13:57;100573.00;;;8.90
21336;BMP180;10826;52.536;13.432;2022-11-20T01:16:34;100580.00;;;9.00
21336;BMP180;10826;52.536;13.432;2022-11-20T01:19:04;100589.00;;;9.00
21336;BMP180;10826;52.536;13.432;2022-11-20T01:21:34;100581.00;;;9.00
21336;BMP180;10826;52.536;13.432;2022-11-20T01:24:01;100573.00;;;8.90
21336;BMP180;10826;52.536;13.432;2022-11-20T01:26:34;100577.00;;;9.00
21336;BMP180;10826;52.536;13.432;2022-11-20T01:29:01;100571.00;;;8.90
21336;BMP180;10826;52.536;13.432;2022-11-20T01:31:36;100579.00;;;8.90
21336;BMP180;10826;52.536;13.432;2022-11-20T01:34:13;100573.00;;;8.90
21336;BMP180;10826;52.536;13.432;2022-11-20T01:36:42;100569.00;;;8.90
21336;BMP180;10826;52.536;13.432;2022-11-20T01:39:15;100554.00;;;9.00
21336;BMP180;10826;52.536;13.432;2022-11-20T01:41:42;100570.00;;;9.00
21336;BMP180;10826;52.536;13.432;2022-11-20T01:44:53;100562.00;;;9.00
21336;BMP180;10826;52.536;13.432;2022-11-20T01:47:31;100553.00;;;8.90
21336;BMP180;10826;52.536;13.432;2022-11-20T01:50:25;100554.00;;;9.00
21336;BMP180;10826;52.536;13.432;2022-11-20T01:53:15;100557.00;;;8.90
21336;BMP180;10826;52.536;13.432;2022-11-20T01:55:49;100560.00;;;8.90
21336;BMP180;10826;52.536;13.432;2022-11-20T01:58:19;100560.00;;;8.90
21336;BMP180;10826;52.536;13.432;2022-11-20T02:00:45;100547.00;;;8.90
21336;BMP180;10826;52.536;13.432;2022-11-20T02:03:16;100562.00;;;8.90
21336;BMP180;10826;52.536;13.432;2022-11-20T02:05:55;100560.00;;;8.80
21336;BMP180;10826;52.536;13.432;2022-11-20T02:08:23;100552.00;;;9.00
21336;BMP180;10826;52.536;13.432;2022-11-20T02:10:49;100561.00;;;8.90
21336;BMP180;10826;52.536;13.432;2022-11-20T02:13:16;100555.00;;;8.90
21336;BMP180;10826;52.536;13.432;2022-11-20T02:16:01;100546.00;;;9.00
21336;BMP180;10826;52.536;13.432;2022-11-20T02:18:28;100546.00;;;9.00
21336;BMP180;10826;52.536;13.432;2022-11-20T02:21:06;100541.00;;;9.00
21336;BMP180;10826;52.536;13.432;2022-11-20T02:23:53;100541.00;;;8.90
21336;BMP180;10826;52.536;13.432;2022-11-20T02:26:21;100552.00;;;8.90
21336;BMP180;10826;52.536;13.432;2022-11-20T02:28:49;100547.00;;;8.90
21336;BMP180;10826;52.536;13.432;2022-11-20T02:31:15;100540.00;;;8.90
21336;BMP180;10826;52.536;13.432;2022-11-20T02:33:42;100537.00;;;8.90
21336;BMP180;10826;52.536;13.432;2022-11-20T02:36:14;100531.00;;;9.00
21336;BMP180;10826;52.536;13.432;2022-11-20T02:38:42;100531.00;;;8.90
21336;BMP180;10826;52.536;13.432;2022-11-20T02:41:08;100539.00;;;8.90
21336;BMP180;10826;52.536;13.432;2022-11-20T02:43:34;100530.00;;;8.90
21336;BMP180;10826;52.536;13.432;2022-11-20T02:46:00;100539.00;;;8.90
21336;BMP180;10826;52.536;13.432;2022-11-20T02:48:26;100541.00;;;9.00
21336;BMP180;10826;52.536;13.432;2022-11-20T02:50:52;100539.00;;;9.00
21336;BMP180;10826;52.536;13.432;2022-11-20T02:53:17;100541.00;;;9.00
21336;BMP180;10826;52.536;13.432;2022-11-20T02:55:43;100546.00;;;9.00
21336;BMP180;10826;52.536;13.432;2022-11-20T02:58:09;100546.00;;;9.00
21336;BMP180;10826;52.536;13.432;2022-11-20T03:00:35;100541.00;;;9.00
21336;BMP180;10826;52.536;13.432;2022-11-20T03:03:01;100529.00;;;9.00
21336;BMP180;10826;52.536;13.432;2022-11-20T03:05:27;100534.00;;;9.00
21336;BMP180;10826;52.536;13.432;2022-11-20T03:07:53;100502.00;;;9.00
21336;BMP180;10826;52.536;13.432;2022-11-20T03:10:19;100524.00;;;9.00
21336;BMP180;10826;52.536;13.432;2022-11-20T03:12:45;100531.00;;;9.00
21336;BMP180;10826;52.536;13.432;2022-11-20T03:15:11;100520.00;;;9.00
21336;BMP180;10826;52.536;13.432;2022-11-20T03:17:37;100522.00;;;9.00
21336;BMP180;10826;52.536;13.432;2022-11-20T03:20:03;100529.00;;;9.00
21336;BMP180;10826;52.536;13.432;2022-11-20T03:22:30;100518.00;;;9.00
21336;BMP180;10826;52.536;13.432;2022-11-20T03:24:56;100513.00;;;9.00
21336;BMP180;10826;52.536;13.432;2022-11-20T03:27:21;100522.00;;;9.00
21336;BMP180;10826;52.536;13.432;2022-11-20T03:29:47;100515.00;;;8.90
21336;BMP180;10826;52.536;13.432;2022-11-20T03:32:13;100519.00;;;8.90
21336;BMP180;10826;52.536;13.432;2022-11-20T03:34:39;100522.00;;;8.90
21336;BMP180;10826;52.536;13.432;2022-11-20T03:37:05;100517.00;;;8.90
21336;BMP180;10826;52.536;13.432;2022-11-20T03:39:30;100519.00;;;8.90
21336;BMP180;10826;52.536;13.432;2022-11-20T03:41:56;100510.00;;;8.90
21336;BMP180;10826;52.536;13.432;2022-11-20T03:44:22;100514.00;;;8.90
21336;BMP180;10826;52.536;13.432;2022-11-20T03:46:48;100507.00;;;8.90
21336;BMP180;10826;52.536;13.432;2022-11-20T03:49:14;100502.00;;;8.90
21336;BMP180;10826;52.536;13.432;2022-11-20T03:51:40;100497.00;;;8.90
21336;BMP180;10826;52.536;13.432;2022-11-20T03:54:08;100511.00;;;9.00
21336;BMP180;10826;52.536;13.432;2022-11-20T03:56:37;100512.00;;;9.00
21336;BMP180;10826;52.536;13.432;2022-11-20T03:59:04;100515.00;;;9.00
21336;BMP180;10826;52.536;13.432;2022-11-20T04:01:34;100517.00;;;9.00
21336;BMP180;10826;52.536;13.432;2022-11-20T04:04:00;100509.00;;;8.90
21336;BMP180;10826;52.536;13.432;2022-11-20T04:06:34;100508.00;;;9.00
21336;BMP180;10826;52.536;13.432;2022-11-20T04:09:01;100510.00;;;8.90
21336;BMP180;10826;52.536;13.432;2022-11-20T04:11:31;100507.00;;;8.90
21336;BMP180;10826;52.536;13.432;2022-11-20T04:14:01;100502.00;;;8.90
21336;BMP180;10826;52.536;13.432;2022-11-20T04:16:30;100503.00;;;8.90
21336;BMP180;10826;52.536;13.432;2022-11-20T04:19:00;100497.00;;;8.90
21336;BMP180;10826;52.536;13.432;2022-11-20T04:21:27;100510.00;;;8.90
21336;BMP180;10826;52.536;13.432;2022-11-20T04:23:54;100516.00;;;8.90
21336;BMP180;10826;52.536;13.432;2022-11-20T04:26:21;100496.00;;;8.90
21336;BMP180;10826;52.536;13.432;2022-11-20T04:28:47;100492.00;;;8.90
21336;BMP180;10826;52.536;13.432;2022-11-20T04:31:17;100509.00;;;8.80
21336;BMP180;10826;52.536;13.432;2022-11-20T04:33:44;100509.00;;;8.80
21336;BMP180;10826;52.536;13.432;2022-11-20T04:36:25;100513.00;;;8.90
21336;BMP180;10826;52.536;13.432;2022-11-20T04:39:00;100516.00;;;8.80
21336;BMP180;10826;52.536;13.432;2022-11-20T04:41:31;100507.00;;;8.80
21336;BMP180;10826;52.536;13.432;2022-11-20T04:44:00;100494.00;;;8.80
21336;BMP180;10826;52.536;13.432;2022-11-20T04:46:34;100509.00;;;8.80
21336;BMP180;10826;52.536;13.432;2022-11-20T04:49:00;100507.00;;;8.80
21336;BMP180;10826;52.536;13.432;2022-11-20T04:51:26;100500.00;;;8.70
21336;BMP180;10826;52.536;13.432;2022-11-20T04:53:53;100493.00;;;8.70
21336;BMP180;10826;52.536;13.432;2022-11-20T04:56:19;100498.00;;;8.70
21336;BMP180;10826;52.536;13.432;2022-11-20T04:58:44;100499.00;;;8.70
21336;BMP180;10826;52.536;13.432;2022-11-20T05:01:17;100492.00;;;8.70
21336;BMP180;10826;52.536;13.432;2022-11-20T05:03:44;100485.00;;;8.70
21336;BMP180;10826;52.536;13.432;2022-11-20T05:06:13;100488.00;;;8.70
21336;BMP180;10826;52.536;13.432;2022-11-20T05:08:40;100488.00;;;8.60
21336;BMP180;10826;52.536;13.432;2022-11-20T05:11:13;100475.00;;;8.60
21336;BMP180;10826;52.536;13.432;2022-11-20T05:13:39;100476.00;;;8.60
21336;BMP180;10826;52.536;13.432;2022-11-20T05:16:13;100484.00;;;8.60
21336;BMP180;10826;52.536;13.432;2022-11-20T05:18:39;100477.00;;;8.60
21336;BMP180;10826;52.536;13.432;2022-11-20T05:21:07;100479.00;;;8.70
21336;BMP180;10826;52.536;13.432;2022-11-20T05:23:33;100467.00;;;8.60
21336;BMP180;10826;52.536;13.432;2022-11-20T05:26:01;100477.00;;;8.60
21336;BMP180;10826;52.536;13.432;2022-11-20T05:28:29;100475.00;;;8.70
21336;BMP180;10826;52.536;13.432;2022-11-20T05:30:55;100466.00;;;8.70
21336;BMP180;10826;52.536;13.432;2022-11-20T05:33:22;100473.00;;;8.70
21336;BMP180;10826;52.536;13.432;2022-11-20T05:35:48;100473.00;;;8.70
21336;BMP180;10826;52.536;13.432;2022-11-20T05:38:14;100459.00;;;8.70
21336;BMP180;10826;52.536;13.432;2022-11-20T05:40:40;100458.00;;;8.70
21336;BMP180;10826;52.536;13.432;2022-11-20T05:43:06;100458.00;;;8.70
21336;BMP180;10826;52.536;13.432;2022-11-20T05:45:32;100466.00;;;8.70
21336;BMP180;10826;52.536;13.432;2022-11-20T05:47:59;100463.00;;;8.80
21336;BMP180;10826;52.536;13.432;2022-11-20T05:50:28;100459.00;;;8.80
21336;BMP180;10826;52.536;13.432;2022-11-20T05:52:54;100467.00;;;8.70
21336;BMP180;10826;52.536;13.432;2022-11-20T05:55:19;100457.00;;;8.70
21336;BMP180;10826;52.536;13.432;2022-11-20T05:57:45;100455.00;;;8.70
21336;BMP180;10826;52.536;13.432;2022-11-20T06:00:12;100464.00;;;8.70
21336;BMP180;10826;52.536;13.432;2022-11-20T06:02:38;100452.00;;;8.70
21336;BMP180;10826;52.536;13.432;2022-11-20T06:05:04;100460.00;;;8.70
21336;BMP180;10826;52.536;13.432;2022-11-20T06:07:30;100451.00;;;8.70
21336;BMP180;10826;52.536;13.432;2022-11-20T06:09:56;100457.00;;;8.70
21336;BMP180;10826;52.536;13.432;2022-11-20T06:12:22;100443.00;;;8.70
21336;BMP180;10826;52.536;13.432;2022-11-20T06:14:48;100457.00;;;8.70
21336;BMP180;10826;52.536;13.432;2022-11-20T06:17:14;100449.00;;;8.70
21336;BMP180;10826;52.536;13.432;2022-11-20T06:19:39;100455.00;;;8.70
21336;BMP180;10826;52.536;13.432;2022-11-20T06:22:05;100455.00;;;8.70
21336;BMP180;10826;52.536;13.432;2022-11-20T06:24:31;100416.00;;;8.70
21336;BMP180;10826;52.536;13.432;2022-11-20T06:26:57;100451.00;;;8.70
21336;BMP180;10826;52.536;13.432;2022-11-20T06:29:23;100457.00;;;8.70
21336;BMP180;10826;52.536;13.432;2022-11-20T06:31:48;100457.00;;;8.70
21336;BMP180;10826;52.536;13.432;2022-11-20T06:34:14;100454.00;;;8.70
21336;BMP180;10826;52.536;13.432;2022-11-20T06:36:40;100443.00;;;8.70
21336;BMP180;10826;52.536;13.432;2022-11-20T06:39:06;100451.00;;;8.70
21336;BMP180;10826;52.536;13.432;2022-11-20T06:41:32;100463.00;;;8.70
21336;BMP180;10826;52.536;13.432;2022-11-20T06:43:57;100461.00;;;8.70
21336;BMP180;10826;52.536;13.432;2022-11-20T06:46:23;100461.00;;;8.70
21336;BMP180;10826;52.536;13.432;2022-11-20T06:48:50;100452.00;;;8.70
21336;BMP180;10826;52.536;13.432;2022-11-20T06:51:17;100401.00;;;8.70
21336;BMP180;10826;52.536;13.432;2022-11-20T06:53:43;100445.00;;;8.70
21336;BMP180;10826;52.536;13.432;2022-11-20T06:56:09;100455.00;;;8.70
21336;BMP180;10826;52.536;13.432;2022-11-20T06:58:36;100446.00;;;8.70
21336;BMP180;10826;52.536;13.432;2022-11-20T07:01:06;100438.00;;;8.70
21336;BMP180;10826;52.536;13.432;2022-11-20T07:03:33;100448.00;;;8.70
21336;BMP180;10826;52.536;13.432;2022-11-20T07:06:01;100447.00;;;8.70
21336;BMP180;10826;52.536;13.432;2022-11-20T07:08:27;100448.00;;;8.80
21336;BMP180;10826;52.536;13.432;2022-11-20T07:10:57;100433.00;;;8.80
21336;BMP180;10826;52.536;13.432;2022-11-20T07:13:24;100439.00;;;8.70
21336;BMP180;10826;52.536;13.432;2022-11-20T07:15:50;100442.00;;;8.70
21336;BMP180;10826;52.536;13.432;2022-11-20T07:18:15;100441.00;;;8.70
21336;BMP180;10826;52.536;13.432;2022-11-20T07:20:41;100447.00;;;8.70
21336;BMP180;10826;52.536;13.432;2022-11-20T07:23:07;100440.00;;;8.70
21336;BMP180;10826;52.536;13.432;2022-11-20T07:25:33;100448.00;;;8.70
21336;BMP180;10826;52.536;13.432;2022-11-20T07:28:00;100453.00;;;8.70
21336;BMP180;10826;52.536;13.432;2022-11-20T07:30:28;100443.00;;;8.70
21336;BMP180;10826;52.536;13.432;2022-11-20T07:32:56;100448.00;;;8.70
21336;BMP180;10826;52.536;13.432;2022-11-20T07:35:23;100457.00;;;8.70
21336;BMP180;10826;52.536;13.432;2022-11-20T07:37:49;100449.00;;;8.70
21336;BMP180;10826;52.536;13.432;2022-11-20T07:40:16;100431.00;;;8.70
21336;BMP180;10826;52.536;13.432;2022-11-20T07:42:54;100430.00;;;8.70
21336;BMP180;10826;52.536;13.432;2022-11-20T07:45:23;100436.00;;;8.70
21336;BMP180;10826;52.536;13.432;2022-11-20T07:47:50;100434.00;;;8.70
21336;BMP180;10826;52.536;13.432;2022-11-20T07:50:17;100435.00;;;8.80
21336;BMP180;10826;52.536;13.432;2022-11-20T07:52:43;100429.00;;;8.80
21336;BMP180;10826;52.536;13.432;2022-11-20T07:55:10;100423.00;;;8.80
21336;BMP180;10826;52.536;13.432;2022-11-20T07:57:36;100426.00;;;8.80
21336;BMP180;10826;52.536;13.432;2022-11-20T08:00:05;100436.00;;;8.90
21336;BMP180;10826;52.536;13.432;2022-11-20T08:02:32;100434.00;;;8.90
21336;BMP180;10826;52.536;13.432;2022-11-20T08:04:58;100434.00;;;8.90
21336;BMP180;10826;52.536;13.432;2022-11-20T08:07:24;100431.00;;;8.90
21336;BMP180;10826;52.536;13.432;2022-11-20T08:09:50;100435.00;;;8.90
21336;BMP180;10826;52.536;13.432;2022-11-20T08:12:19;100430.00;;;9.00
21336;BMP180;10826;52.536;13.432;2022-11-20T08:15:05;100431.00;;;9.00
21336;BMP180;10826;52.536;13.432;2022-11-20T08:17:32;100428.00;;;9.00
21336;BMP180;10826;52.536;13.432;2022-11-20T08:19:57;100417.00;;;9.00
21336;BMP180;10826;52.536;13.432;2022-11-20T08:22:23;100436.00;;;9.00
21336;BMP180;10826;52.536;13.432;2022-11-20T08:24:50;100427.00;;;9.10
21336;BMP180;10826;52.536;13.432;2022-11-20T08:27:16;100405.00;;;9.00
21336;BMP180;10826;52.536;13.432;2022-11-20T08:29:41;100415.00;;;9.10
21336;BMP180;10826;52.536;13.432;2022-11-20T08:32:07;100421.00;;;9.10
21336;BMP180;10826;52.536;13.432;2022-11-20T08:34:33;100409.00;;;9.10
21336;BMP180;10826;52.536;13.432;2022-11-20T08:37:01;100410.00;;;9.10
21336;BMP180;10826;52.536;13.432;2022-11-20T08:39:27;100408.00;;;9.10
21336;BMP180;10826;52.536;13.432;2022-11-20T08:41:53;100413.00;;;9.10
21336;BMP180;10826;52.536;13.432;2022-11-20T08:44:19;100400.00;;;9.10
21336;BMP180;10826;52.536;13.432;2022-11-20T08:46:45;100399.00;;;9.10
21336;BMP180;10826;52.536;13.432;2022-11-20T08:49:13;100406.00;;;9.20
21336;BMP180;10826;52.536;13.432;2022-11-20T08:51:40;100405.00;;;9.20
21336;BMP180;10826;52.536;13.432;2022-11-20T08:54:07;100394.00;;;9.20
21336;BMP180;10826;52.536;13.432;2022-11-20T08:56:34;100408.00;;;9.20
21336;BMP180;10826;52.536;13.432;2022-11-20T08:59:01;100409.00;;;9.30
21336;BMP180;10826;52.536;13.432;2022-11-20T09:01:27;100410.00;;;9.30
21336;BMP180;10826;52.536;13.432;2022-11-20T09:03:58;100406.00;;;9.40
21336;BMP180;10826;52.536;13.432;2022-11-20T09:06:25;100407.00;;;9.30
21336;BMP180;10826;52.536;13.432;2022-11-20T09:08:55;100419.00;;;9.40
21336;BMP180;10826;52.536;13.432;2022-11-20T09:11:21;100421.00;;;9.40
21336;BMP180;10826;52.536;13.432;2022-11-20T09:13:47;100423.00;;;9.50
21336;BMP180;10826;52.536;13.432;2022-11-20T09:16:13;100415.00;;;9.50
21336;BMP180;10826;52.536;13.432;2022-11-20T09:18:39;100410.00;;;9.50
21336;BMP180;10826;52.536;13.432;2022-11-20T09:21:09;100427.00;;;9.50
21336;BMP180;10826;52.536;13.432;2022-11-20T09:23:38;100420.00;;;9.50
21336;BMP180;10826;52.536;13.432;2022-11-20T09:26:12;100431.00;;;9.50
21336;BMP180;10826;52.536;13.432;2022-11-20T09:28:39;100432.00;;;9.50
21336;BMP180;10826;52.536;13.432;2022-11-20T09:31:19;100424.00;;;9.60
21336;BMP180;10826;52.536;13.432;2022-11-20T09:33:47;100429.00;;;9.60
21336;BMP180;10826;52.536;13.432;2022-11-20T09:36:13;100402.00;;;9.60
21336;BMP180;10826;52.536;13.432;2022-11-20T09:38:39;100419.00;;;9.70
21336;BMP180;10826;52.536;13.432;2022-11-20T09:41:06;100422.00;;;9.70
21336;BMP180;10826;52.536;13.432;2022-11-20T09:44:02;100422.00;;;9.80
21336;BMP180;10826;52.536;13.432;2022-11-20T09:47:05;100420.00;;;9.80
21336;BMP180;10826;52.536;13.432;2022-11-20T09:49:58;100414.00;;;9.90
21336;BMP180;10826;52.536;13.432;2022-11-20T09:52:47;100408.00;;;9.90
21336;BMP180;10826;52.536;13.432;2022-11-20T09:55:17;100406.00;;;9.90
21336;BMP180;10826;52.536;13.432;2022-11-20T09:57:48;100413.00;;;9.90
21336;BMP180;10826;52.536;13.432;2022-11-20T10:00:17;100400.00;;;9.90
21336;BMP180;10826;52.536;13.432;2022-11-20T10:02:59;100402.00;;;10.00
21336;BMP180;10826;52.536;13.432;2022-11-20T10:05:41;100398.00;;;10.00
21336;BMP180;10826;52.536;13.432;2022-11-20T10:08:39;100391.00;;;10.10
21336;BMP180;10826;52.536;13.432;2022-11-20T10:14:16;100399.00;;;10.20
21336;BMP180;10826;52.536;13.432;2022-11-20T10:22:53;100394.00;;;10.40
21336;BMP180;10826;52.536;13.432;2022-11-20T10:25:50;100388.00;;;10.50
21336;BMP180;10826;52.536;13.432;2022-11-20T10:31:52;100383.00;;;10.50
21336;BMP180;10826;52.536;13.432;2022-11-20T10:34:47;100376.00;;;10.50
21336;BMP180;10826;52.536;13.432;2022-11-20T10:37:27;100375.00;;;10.50
21336;BMP180;10826;52.536;13.432;2022-11-20T10:40:20;100373.00;;;10.50
21336;BMP180;10826;52.536;13.432;2022-11-20T10:42:56;100371.00;;;10.40
21336;BMP180;10826;52.536;13.432;2022-11-20T10:45:51;100364.00;;;10.50
21336;BMP180;10826;52.536;13.432;2022-11-20T10:48:26;100357.00;;;10.50
21336;BMP180;10826;52.536;13.432;2022-11-20T10:51:37;100364.00;;;10.50
21336;BMP180;10826;52.536;13.432;2022-11-20T10:54:17;100365.00;;;10.50
21336;BMP180;10826;52.536;13.432;2022-11-20T10:56:50;100362.00;;;10.50
21336;BMP180;10826;52.536;13.432;2022-11-20T11:02:42;100360.00;;;10.50
21336;BMP180;10826;52.536;13.432;2022-11-20T11:05:41;100371.00;;;10.50
21336;BMP180;10826;52.536;13.432;2022-11-20T11:08:15;100357.00;;;10.50
21336;BMP180;10826;52.536;13.432;2022-11-20T11:11:43;100355.00;;;10.70
21336;BMP180;10826;52.536;13.432;2022-11-20T11:14:12;100367.00;;;10.90
21336;BMP180;10826;52.536;13.432;2022-11-20T11:16:56;100362.00;;;11.00
21336;BMP180;10826;52.536;13.432;2022-11-20T11:19:23;100360.00;;;11.10
21336;BMP180;10826;52.536;13.432;2022-11-20T11:21:54;100361.00;;;11.20
21336;BMP180;10826;52.536;13.432;2022-11-20T11:24:27;100361.00;;;11.30
21336;BMP180;10826;52.536;13.432;2022-11-20T11:27:00;100347.00;;;11.30
21336;BMP180;10826;52.536;13.432;2022-11-20T11:29:30;100356.00;;;11.30
21336;BMP180;10826;52.536;13.432;2022-11-20T11:32:22;100355.00;;;11.30
21336;BMP180;10826;52.536;13.432;2022-11-20T11:35:11;100358.00;;;11.20
21336;BMP180;10826;52.536;13.432;2022-11-20T11:37:46;100343.00;;;11.10
21336;BMP180;10826;52.536;13.432;2022-11-20T11:40:14;100339.00;;;11.00
21336;BMP180;10826;52.536;13.432;2022-11-20T11:42:53;100342.00;;;11.00
21336;BMP180;10826;52.536;13.432;2022-11-20T11:45:19;100338.00;;;11.00
21336;BMP180;10826;52.536;13.432;2022-11-20T11:47:51;100335.00;;;11.00
21336;BMP180;10826;52.536;13.432;2022-11-20T11:50:24;100353.00;;;11.00
21336;BMP180;10826;52.536;13.432;2022-11-20T11:53:12;100353.00;;;11.00
21336;BMP180;10826;52.536;13.432;2022-11-20T11:56:09;100344.00;;;10.90
21336;BMP180;10826;52.536;13.432;2022-11-20T11:58:51;100326.00;;;10.90
21336;BMP180;10826;52.536;13.432;2022-11-20T12:01:47;100330.00;;;10.90
21336;BMP180;10826;52.536;13.432;2022-11-20T12:07:01;100333.00;;;10.80
21336;BMP180;10826;52.536;13.432;2022-11-20T12:09:43;100334.00;;;10.80
21336;BMP180;10826;52.536;13.432;2022-11-20T12:12:17;100346.00;;;10.70
21336;BMP180;10826;52.536;13.432;2022-11-20T12:14:48;100339.00;;;10.70
21336;BMP180;10826;52.536;13.432;2022-11-20T12:17:15;100322.00;;;10.60
21336;BMP180;10826;52.536;13.432;2022-11-20T12:19:42;100339.00;;;10.50
21336;BMP180;10826;52.536;13.432;2022-11-20T12:22:40;100334.00;;;10.60
21336;BMP180;10826;52.536;13.432;2022-11-20T12:25:35;100316.00;;;10.50
21336;BMP180;10826;52.536;13.432;2022-11-20T12:28:56;100326.00;;;10.50
21336;BMP180;10826;52.536;13.432;2022-11-20T12:34:12;100314.00;;;10.50
21336;BMP180;10826;52.536;13.432;2022-11-20T12:36:50;100330.00;;;10.40
21336;BMP180;10826;52.536;13.432;2022-11-20T12:39:35;100326.00;;;10.40
21336;BMP180;10826;52.536;13.432;2022-11-20T12:42:44;100295.00;;;10.30
21336;BMP180;10826;52.536;13.432;2022-11-20T12:46:02;100295.00;;;10.20
21336;BMP180;10826;52.536;13.432;2022-11-20T12:48:51;100300.00;;;10.10
21336;BMP180;10826;52.536;13.432;2022-11-20T12:51:47;100305.00;;;10.10
21336;BMP180;10826;52.536;13.432;2022-11-20T12:57:33;100304.00;;;9.90
21336;BMP180;10826;52.536;13.432;2022-11-20T13:00:10;100304.00;;;10.00
21336;BMP180;10826;52.536;13.432;2022-11-20T13:03:11;100298.00;;;10.00
21336;BMP180;10826;52.536;13.432;2022-11-20T13:06:11;100289.00;;;10.00
21336;BMP180;10826;52.536;13.432;2022-11-20T13:08:41;100288.00;;;10.00
21336;BMP180;10826;52.536;13.432;2022-11-20T13:17:28;100289.00;;;10.00
21336;BMP180;10826;52.536;13.432;2022-11-20T13:19:57;100275.00;;;9.90
21336;BMP180;10826;52.536;13.432;2022-11-20T13:22:27;100276.00;;;9.90
21336;BMP180;10826;52.536;13.432;2022-11-20T13:24:53;100280.00;;;10.00
21336;BMP180;10826;52.536;13.432;2022-11-20T13:27:23;100294.00;;;10.10
21336;BMP180;10826;52.536;13.432;2022-11-20T13:30:11;100287.00;;;10.10
21336;BMP180;10826;52.536;13.432;2022-11-20T13:32:59;100288.00;;;10.20
21336;BMP180;10826;52.536;13.432;2022-11-20T13:35:41;100273.00;;;10.20
21336;BMP180;10826;52.536;13.432;2022-11-20T13:38:13;100276.00;;;10.20
21336;BMP180;10826;52.536;13.432;2022-11-20T13:41:00;100266.00;;;10.20
21336;BMP180;10826;52.536;13.432;2022-11-20T13:43:47;100276.00;;;10.10
21336;BMP180;10826;52.536;13.432;2022-11-20T13:46:14;100258.00;;;10.10
21336;BMP180;10826;52.536;13.432;2022-11-20T13:48:46;100271.00;;;10.10
21336;BMP180;10826;52.536;13.432;2022-11-20T13:54:52;100281.00;;;10.10
21336;BMP180;10826;52.536;13.432;2022-11-20T13:57:41;100274.00;;;10.10
21336;BMP180;10826;52.536;13.432;2022-11-20T14:00:20;100274.00;;;10.10
21336;BMP180;10826;52.536;13.432;2022-11-20T14:03:01;100278.00;;;10.10
21336;BMP180;10826;52.536;13.432;2022-11-20T14:05:31;100282.00;;;10.10
21336;BMP180;10826;52.536;13.432;2022-11-20T14:08:03;100288.00;;;10.10
21336;BMP180;10826;52.536;13.432;2022-11-20T14:10:30;100289.00;;;10.00
21336;BMP180;10826;52.536;13.432;2022-11-20T14:12:56;100268.00;;;9.90
21336;BMP180;10826;52.536;13.432;2022-11-20T14:15:34;100283.00;;;10.00
21336;BMP180;10826;52.536;13.432;2022-11-20T14:18:19;100282.00;;;9.90
21336;BMP180;10826;52.536;13.432;2022-11-20T14:20:47;100288.00;;;9.80
21336;BMP180;10826;52.536;13.432;2022-11-20T14:23:25;100286.00;;;9.90
21336;BMP180;10826;52.536;13.432;2022-11-20T14:25:51;100283.00;;;9.70
21336;BMP180;10826;52.536;13.432;2022-11-20T14:28:30;100294.00;;;9.70
21336;BMP180;10826;52.536;13.432;2022-11-20T14:30:57;100292.00;;;9.60
21336;BMP180;10826;52.536;13.432;2022-11-20T14:33:26;100271.00;;;9.50
21336;BMP180;10826;52.536;13.432;2022-11-20T14:35:57;100283.00;;;9.50
21336;BMP180;10826;52.536;13.432;2022-11-20T14:38:28;100292.00;;;9.50
21336;BMP180;10826;52.536;13.432;2022-11-20T14:41:07;100280.00;;;9.50
21336;BMP180;10826;52.536;13.432;2022-11-20T14:43:33;100291.00;;;9.40
21336;BMP180;10826;52.536;13.432;2022-11-20T14:46:05;100275.00;;;9.40
21336;BMP180;10826;52.536;13.432;2022-11-20T14:48:47;100279.00;;;9.40
21336;BMP180;10826;52.536;13.432;2022-11-20T14:51:39;100271.00;;;9.50
21336;BMP180;10826;52.536;13.432;2022-11-20T14:54:20;100270.00;;;9.40
21336;BMP180;10826;52.536;13.432;2022-11-20T14:57:02;100265.00;;;9.40